New Horizon — WKWB — position and weather

sailwx.info

Track history (hours):
 
Tides and Currents Weather Stations Pressure Air Temp Water Temp Dewpoint Dewpoint Depression Visibility Wind Speed Wind Dir Waves Ship Positions

Oceanographic research ship New Horizon (USA)

Detailed information on ship capabilities available from University of Delaware's Ocean Information Center.

Owner: Bold Horizon, LLC., Annapolis, MD. More information available from US FCC via Universal Licensing System and Coast Guard Vessel Documentation Center.

Last reported at 2017-Aug-17 10:10 UTC. Time now 2017-Aug-20 09:50 UTC.
Position N 32°42' W 117°09'.

Type: Other ship. MMSI: 303273000.

Date/timePositionNaut miles runAvg speedWind from/ knotsBaromVisibWave heightAir tempDewpointWater temp
2017-Aug-17 10:10N 32°42' W 117°09'0 0.0
2017-Aug-17 09:43N 32°42' W 117°09'0 0.0
2017-Aug-17 09:07N 32°42' W 117°09'0 0.0
2017-Aug-17 07:55N 32°42' W 117°09'0 0.0
2017-Aug-16 22:57N 32°42' W 117°09'1 2.9
2017-Aug-16 22:26N 32°43' W 117°11'3 6.4
2017-Aug-16 22:01N 32°42' W 117°14'4 7.2
2017-Aug-16 21:31N 32°38' W 117°14'4 7.2
2017-Aug-16 21:01N 32°37' W 117°17'4 7.4
2017-Aug-16 20:31N 32°36' W 117°22'4 7.5
2017-Aug-16 20:00N 32°35' W 117°26'3 7.0
2017-Aug-16 19:31N 32°34' W 117°30'4 7.0
2017-Aug-16 19:01N 32°33' W 117°34'4 7.0
2017-Aug-16 18:31N 32°32' W 117°38'3 6.2
2017-Aug-16 18:00N 32°31' W 117°41'4 7.5
2017-Aug-16 17:31N 32°30' W 117°46'3 6.5
2017-Aug-16 17:00N 32°29' W 117°49'3 6.8
2017-Aug-16 16:31N 32°27' W 117°52'3 5.6
2017-Aug-16 16:00N 32°29' W 117°55'4 7.6
2017-Aug-16 15:30N 32°28' W 117°60'4 7.9
2017-Aug-16 15:01N 32°27' W 118°04'4 8.0
2017-Aug-16 14:30N 32°26' W 118°08'4 7.7
2017-Aug-16 14:01N 32°24' W 118°13'4 7.2
2017-Aug-16 13:31N 32°24' W 118°17'4 7.2
2017-Aug-16 12:53N 32°23' W 118°22'3 7.1
2017-Aug-16 12:30N 32°22' W 118°25'3 7.0
2017-Aug-16 12:01N 32°21' W 118°29'4 7.1
2017-Aug-16 11:29N 32°20' W 118°33'3 7.0
2017-Aug-16 11:00N 32°19' W 118°37'3 6.9
2017-Aug-16 10:30N 32°18' W 118°41'2 3.2
2017-Aug-16 10:01N 32°18' W 118°43'1 2.1
2017-Aug-16 09:30N 32°19' W 118°42'1 1.0
2017-Aug-16 09:00N 32°18' W 118°42'2 3.7
2017-Aug-16 08:31N 32°17' W 118°43'1 2.6
2017-Aug-16 08:00N 32°18' W 118°43'0 0.3
2017-Aug-16 07:29N 32°18' W 118°43'0 0.1
2017-Aug-16 07:00N 32°18' W 118°43'0 0.0
2017-Aug-16 06:30N 32°18' W 118°43'0 0.3
2017-Aug-16 06:00N 32°18' W 118°43'3 6.7
2017-Aug-16 05:30N 32°16' W 118°46'3 6.6
2017-Aug-16 05:01N 32°15' W 118°50'3 6.6
2017-Aug-16 04:30N 32°13' W 118°53'3 6.8
2017-Aug-16 04:00N 32°11' W 118°56'3 6.2
2017-Aug-16 03:31N 32°09' W 118°59'0 0.8
2017-Aug-16 03:01N 32°09' W 118°60'2 3.7
2017-Aug-16 02:31N 32°09' W 119°02'1 2.8
2017-Aug-16 02:01N 32°10' W 119°03'2 3.4
2017-Aug-16 01:30N 32°10' W 119°01'0 0.4
2017-Aug-16 01:00N 32°09' W 119°01'0 0.3
2017-Aug-16 00:30N 32°09' W 119°02'0 0.8
2017-Aug-16 00:00N 32°09' W 119°01'0 0.8
2017-Aug-15 23:30N 32°09' W 119°01'2 4.9
2017-Aug-15 23:01N 32°09' W 119°04'4 7.1
2017-Aug-15 22:31N 32°09' W 119°09'4 7.1
2017-Aug-15 22:01N 32°09' W 119°13'4 7.2
2017-Aug-15 21:30N 32°09' W 119°17'4 6.8
2017-Aug-15 21:00N 32°09' W 119°21'3 6.8
2017-Aug-15 20:31N 32°09' W 119°25'4 6.9
2017-Aug-15 20:00N 32°09' W 119°29'3 6.9
2017-Aug-15 19:30N 32°09' W 119°33'4 6.9
2017-Aug-15 18:52N 32°09' W 119°38'2 3.8
2017-Aug-15 18:28N 32°09' W 119°40'2 3.4
2017-Aug-15 18:01N 32°09' W 119°42'2 3.7
2017-Aug-15 17:30N 32°10' W 119°44'2 3.4
2017-Aug-15 17:01N 32°11' W 119°42'1 0.5
2017-Aug-15 15:53N 32°10' W 119°42'0 0.0
2017-Aug-15 15:08N 32°10' W 119°42'0 0.6
2017-Aug-15 15:00N 32°10' W 119°42'1 1.4
2017-Aug-15 14:08N 32°10' W 119°44'0 2.9
2017-Aug-15 14:00N 32°10' W 119°43'2 3.6
2017-Aug-15 13:22N 32°09' W 119°41'20 2.8
2017-Aug-15 06:16N 32°16' W 120°03'1 3.9
2017-Aug-15 05:59N 32°15' W 120°03'3 0.5
2017-Aug-14 22:53N 32°12' W 120°05'2 6.6
2017-Aug-14 22:30N 32°13' W 120°02'4 6.7
2017-Aug-14 21:59N 32°14' W 119°58'3 6.6
2017-Aug-14 21:30N 32°15' W 119°55'3 6.6
2017-Aug-14 21:00N 32°15' W 119°51'4 6.8
2017-Aug-14 20:28N 32°16' W 119°47'3 6.7
2017-Aug-14 20:00N 32°17' W 119°43'3 6.9
2017-Aug-14 19:30N 32°18' W 119°39'3 6.9
2017-Aug-14 19:01N 32°18' W 119°35'3 6.6
2017-Aug-14 18:31N 32°19' W 119°31'3 6.8
2017-Aug-14 18:01N 32°20' W 119°27'3 6.7
2017-Aug-14 17:30N 32°21' W 119°24'4 7.1
2017-Aug-14 17:00N 32°22' W 119°20'4 7.0
2017-Aug-14 16:31N 32°23' W 119°16'4 7.3
2017-Aug-14 16:00N 32°23' W 119°11'4 7.0
2017-Aug-14 15:27N 32°24' W 119°07'3 7.0
2017-Aug-14 15:01N 32°25' W 119°03'3 6.8
2017-Aug-14 14:30N 32°25' W 118°59'3 6.8
2017-Aug-14 14:00N 32°26' W 118°55'3 6.9
2017-Aug-14 13:31N 32°28' W 118°52'3 6.8
2017-Aug-14 13:00N 32°30' W 118°49'3 7.0
2017-Aug-14 12:30N 32°32' W 118°45'4 7.2
2017-Aug-14 12:00N 32°34' W 118°42'3 7.0
2017-Aug-14 11:31N 32°36' W 118°39'3 6.9
2017-Aug-14 11:01N 32°38' W 118°35'4 7.1
2017-Aug-14 10:30N 32°40' W 118°32'4 7.1
2017-Aug-14 10:01N 32°42' W 118°28'4 7.1
2017-Aug-14 09:30N 32°44' W 118°25'3 6.9
2017-Aug-14 09:00N 32°47' W 118°22'3 6.5
2017-Aug-14 08:30N 32°49' W 118°20'3 7.0
2017-Aug-14 08:01N 32°53' W 118°21'4 7.0
2017-Aug-14 07:30N 32°56' W 118°22'3 5.8
2017-Aug-14 06:59N 32°59' W 118°23'1 1.5
2017-Aug-14 06:30N 32°60' W 118°23'2 3.2
2017-Aug-14 06:00N 33°01' W 118°23'1 2.9
2017-Aug-14 05:31N 33°01' W 118°24'1 1.5
2017-Aug-14 04:52N 33°01' W 118°25'0 1.3
2017-Aug-14 04:30N 33°00' W 118°25'1 2.6
2017-Aug-14 04:01N 33°01' W 118°23'0 0.5
2017-Aug-14 03:30N 33°00' W 118°23'0 0.5
2017-Aug-14 03:00N 33°01' W 118°23'0 0.0
2017-Aug-14 02:26N 33°01' W 118°23'1 2.4
2017-Aug-14 02:00N 33°00' W 118°25'4 7.3
2017-Aug-14 01:30N 32°60' W 118°29'3 5.5
2017-Aug-14 01:01N 32°59' W 118°32'0 0.3
2017-Aug-14 00:31N 32°59' W 118°32'0 0.2
2017-Aug-14 00:01N 32°59' W 118°32'0 0.0
2017-Aug-13 23:30N 32°59' W 118°32'0 0.1
2017-Aug-13 23:00N 32°59' W 118°32'1 2.6
2017-Aug-13 22:30N 32°58' W 118°31'4 7.5
2017-Aug-13 22:00N 32°56' W 118°27'3 6.8
2017-Aug-13 21:30N 32°54' W 118°24'1 2.6
2017-Aug-13 21:01N 32°54' W 118°23'1 1.4
2017-Aug-13 20:31N 32°53' W 118°22'1 1.8
2017-Aug-13 20:00N 32°52' W 118°21'0 0.7
2017-Aug-13 19:30N 32°52' W 118°21'1 2.1
2017-Aug-13 19:01N 32°51' W 118°20'1 2.2
2017-Aug-13 18:30N 32°50' W 118°20'1 2.0
2017-Aug-13 18:00N 32°49' W 118°19'1 2.1
2017-Aug-13 17:30N 32°49' W 118°18'1 2.1
2017-Aug-13 17:00N 32°48' W 118°18'1 2.0
2017-Aug-13 16:31N 32°47' W 118°17'1 2.1
2017-Aug-13 16:00N 32°46' W 118°16'1 2.1
2017-Aug-13 15:30N 32°46' W 118°15'1 2.0
2017-Aug-13 15:01N 32°45' W 118°14'1 2.0
2017-Aug-13 14:30N 32°44' W 118°13'1 2.0
2017-Aug-13 14:00N 32°44' W 118°12'1 2.2
2017-Aug-13 13:30N 32°42' W 118°12'1 2.1
2017-Aug-13 13:00N 32°41' W 118°12'1 2.0
2017-Aug-13 12:30N 32°40' W 118°12'1 2.2
2017-Aug-13 12:00N 32°39' W 118°13'1 2.4
2017-Aug-13 11:31N 32°39' W 118°14'1 2.4
2017-Aug-13 11:00N 32°38' W 118°15'1 2.3
2017-Aug-13 10:30N 32°37' W 118°16'1 2.4
2017-Aug-13 09:59N 32°36' W 118°17'1 2.4
2017-Aug-13 09:30N 32°35' W 118°18'1 2.5
2017-Aug-13 09:00N 32°34' W 118°18'1 2.4
2017-Aug-13 08:30N 32°33' W 118°19'1 2.4
2017-Aug-13 08:00N 32°32' W 118°20'1 2.5
2017-Aug-13 07:30N 32°32' W 118°21'1 2.5
2017-Aug-13 07:00N 32°31' W 118°22'1 2.5
2017-Aug-13 06:30N 32°31' W 118°24'1 2.5
2017-Aug-13 06:01N 32°31' W 118°25'1 2.5
2017-Aug-13 05:30N 32°30' W 118°26'1 2.5
2017-Aug-13 04:59N 32°29' W 118°28'1 2.3
2017-Aug-13 04:30N 32°29' W 118°29'1 2.3
2017-Aug-13 04:01N 32°29' W 118°30'1 2.4
2017-Aug-13 03:30N 32°29' W 118°32'1 2.6
2017-Aug-13 03:00N 32°28' W 118°33'1 2.5
2017-Aug-13 02:30N 32°28' W 118°35'1 2.6
2017-Aug-13 02:00N 32°27' W 118°36'1 2.3
2017-Aug-13 01:31N 32°26' W 118°37'1 2.5
2017-Aug-13 01:00N 32°26' W 118°38'1 2.4
2017-Aug-13 00:30N 32°25' W 118°39'1 2.5
2017-Aug-13 00:00N 32°25' W 118°41'1 2.4
2017-Aug-12 23:31N 32°24' W 118°41'1 2.3
2017-Aug-12 22:59N 32°23' W 118°42'1 2.4
2017-Aug-12 22:30N 32°21' W 118°42'1 2.4
2017-Aug-12 22:00N 32°20' W 118°43'1 1.8
2017-Aug-12 21:30N 32°19' W 118°43'1 1.9
2017-Aug-12 21:00N 32°19' W 118°43'1 1.8
2017-Aug-12 20:30N 32°18' W 118°43'1 1.8
2017-Aug-12 20:00N 32°17' W 118°44'1 2.2
2017-Aug-12 19:30N 32°16' W 118°44'1 2.3
2017-Aug-12 19:00N 32°15' W 118°45'1 2.2
2017-Aug-12 18:30N 32°14' W 118°46'1 2.2
2017-Aug-12 18:00N 32°13' W 118°47'1 2.1
2017-Aug-12 17:30N 32°13' W 118°48'1 2.2
2017-Aug-12 17:00N 32°12' W 118°49'1 2.5
2017-Aug-12 16:31N 32°12' W 118°50'1 2.4
2017-Aug-12 15:59N 32°11' W 118°52'1 2.1
2017-Aug-12 15:30N 32°11' W 118°53'1 2.3
2017-Aug-12 15:01N 32°10' W 118°54'1 2.2
2017-Aug-12 14:30N 32°10' W 118°55'1 2.1
2017-Aug-12 13:58N 32°10' W 118°57'1 2.1
2017-Aug-12 13:28N 32°10' W 118°58'1 2.0
2017-Aug-12 13:00N 32°10' W 118°59'1 1.5
2017-Aug-12 12:30N 32°10' W 118°60'1 1.5
2017-Aug-12 12:00N 32°10' W 119°01'1 1.6
2017-Aug-12 11:31N 32°10' W 119°02'1 1.6
2017-Aug-12 11:01N 32°10' W 119°03'1 1.6
2017-Aug-12 10:30N 32°10' W 119°04'1 2.3
2017-Aug-12 10:01N 32°10' W 119°05'1 2.4
2017-Aug-12 09:31N 32°11' W 119°06'1 2.5
2017-Aug-12 09:00N 32°11' W 119°08'1 2.5
2017-Aug-12 08:31N 32°11' W 119°09'1 2.4
2017-Aug-12 08:00N 32°11' W 119°11'1 2.6
2017-Aug-12 07:31N 32°12' W 119°12'1 2.5
2017-Aug-12 07:00N 32°12' W 119°14'1 2.4
2017-Aug-12 06:31N 32°11' W 119°15'1 2.4
2017-Aug-12 06:01N 32°12' W 119°16'1 2.5
2017-Aug-12 05:31N 32°12' W 119°18'1 2.5
2017-Aug-12 04:57N 32°12' W 119°19'1 2.5
2017-Aug-12 04:23N 32°13' W 119°21'1 2.6
2017-Aug-12 04:01N 32°13' W 119°22'1 2.3
2017-Aug-12 03:31N 32°13' W 119°23'1 2.6
2017-Aug-12 02:58N 32°13' W 119°25'1 2.5
2017-Aug-12 02:30N 32°13' W 119°26'1 2.4
2017-Aug-12 02:00N 32°13' W 119°28'1 2.3
2017-Aug-12 01:30N 32°13' W 119°29'1 2.1
2017-Aug-12 01:00N 32°13' W 119°30'1 2.0
2017-Aug-12 00:30N 32°12' W 119°31'1 2.1
2017-Aug-12 00:01N 32°12' W 119°33'1 2.1
2017-Aug-11 23:31N 32°12' W 119°34'1 2.1
2017-Aug-11 23:00N 32°11' W 119°35'1 2.2
2017-Aug-11 22:30N 32°11' W 119°36'1 2.0
2017-Aug-11 22:01N 32°11' W 119°37'1 2.1
2017-Aug-11 21:30N 32°10' W 119°38'1 1.9
2017-Aug-11 21:00N 32°10' W 119°39'1 2.1
2017-Aug-11 20:30N 32°10' W 119°41'1 2.0
2017-Aug-11 20:01N 32°11' W 119°42'1 2.0
2017-Aug-11 19:30N 32°11' W 119°43'1 2.1
2017-Aug-11 19:01N 32°11' W 119°44'1 2.1
2017-Aug-11 18:30N 32°12' W 119°45'1 2.1
2017-Aug-11 18:01N 32°13' W 119°46'1 2.1
2017-Aug-11 17:31N 32°13' W 119°47'1 2.1
2017-Aug-11 17:00N 32°14' W 119°48'1 2.1
2017-Aug-11 16:30N 32°15' W 119°49'1 2.0
2017-Aug-11 16:00N 32°16' W 119°49'1 2.0
2017-Aug-11 15:29N 32°16' W 119°50'1 2.0
2017-Aug-11 15:00N 32°16' W 119°52'2 1.8
2017-Aug-11 13:58N 32°18' W 119°53'1 2.0
2017-Aug-11 13:30N 32°18' W 119°54'1 2.2
2017-Aug-11 13:00N 32°18' W 119°55'1 2.2
2017-Aug-11 12:30N 32°18' W 119°57'1 2.0
2017-Aug-11 12:01N 32°18' W 119°58'1 2.1
2017-Aug-11 11:31N 32°18' W 119°59'1 2.0
2017-Aug-11 11:01N 32°17' W 120°00'1 1.7
2017-Aug-11 10:31N 32°17' W 120°01'1 1.8
2017-Aug-11 10:00N 32°17' W 120°02'1 1.8
2017-Aug-11 09:31N 32°16' W 120°03'1 1.7
2017-Aug-11 09:00N 32°16' W 120°03'1 1.8
2017-Aug-11 08:30N 32°15' W 120°04'1 1.8
2017-Aug-11 08:00N 32°14' W 120°04'1 1.8
2017-Aug-11 07:31N 32°13' W 120°04'1 1.7
2017-Aug-11 07:00N 32°12' W 120°05'1 1.8
2017-Aug-11 06:31N 32°12' W 120°06'1 1.8
2017-Aug-11 06:00N 32°12' W 120°07'1 1.8
2017-Aug-11 05:31N 32°11' W 120°08'1 2.0
2017-Aug-11 05:00N 32°11' W 120°09'1 2.0
2017-Aug-11 04:31N 32°12' W 120°10'1 1.7
2017-Aug-11 04:00N 32°11' W 120°11'1 1.7
2017-Aug-11 03:31N 32°11' W 120°12'1 1.8
2017-Aug-11 03:01N 32°11' W 120°13'1 1.9
2017-Aug-11 02:31N 32°11' W 120°15'1 2.3
2017-Aug-11 02:01N 32°10' W 120°16'1 2.2
2017-Aug-11 01:31N 32°10' W 120°17'1 2.0
2017-Aug-11 01:00N 32°10' W 120°18'1 1.6
2017-Aug-11 00:31N 32°11' W 120°19'1 1.7
2017-Aug-11 00:00N 32°11' W 120°20'1 1.6
2017-Aug-10 23:30N 32°11' W 120°21'1 1.6
2017-Aug-10 23:01N 32°11' W 120°22'1 1.5
2017-Aug-10 22:30N 32°11' W 120°23'1 1.5
2017-Aug-10 22:00N 32°11' W 120°24'1 1.5
2017-Aug-10 21:30N 32°11' W 120°25'1 1.6
2017-Aug-10 21:00N 32°11' W 120°26'1 1.8
2017-Aug-10 20:30N 32°11' W 120°27'1 1.6
2017-Aug-10 20:00N 32°11' W 120°28'1 1.6
2017-Aug-10 19:24N 32°11' W 120°29'1 1.7
2017-Aug-10 19:00N 32°11' W 120°30'1 1.6
2017-Aug-10 18:30N 32°11' W 120°31'1 1.8
2017-Aug-10 17:59N 32°10' W 120°32'2 2.0
2017-Aug-10 17:09N 32°10' W 120°34'0 2.1
2017-Aug-10 17:01N 32°10' W 120°34'2 1.3
2017-Aug-10 15:25N 32°11' W 120°36'2 1.5
2017-Aug-10 13:46N 32°12' W 120°33'1 1.9
2017-Aug-10 13:25N 32°12' W 120°33'1 1.7
2017-Aug-10 12:39N 32°12' W 120°31'0 2.0
2017-Aug-10 12:30N 32°12' W 120°31'1 2.0
2017-Aug-10 12:00N 32°12' W 120°30'1 1.9
2017-Aug-10 11:31N 32°12' W 120°29'1 1.7
2017-Aug-10 11:01N 32°12' W 120°28'1 1.6
2017-Aug-10 10:31N 32°12' W 120°27'1 1.5
2017-Aug-10 10:01N 32°12' W 120°26'1 1.6
2017-Aug-10 09:30N 32°12' W 120°25'1 1.6
2017-Aug-10 09:00N 32°12' W 120°24'1 1.5
2017-Aug-10 08:31N 32°12' W 120°23'1 1.6
2017-Aug-10 08:00N 32°12' W 120°22'1 1.5
2017-Aug-10 07:30N 32°12' W 120°21'1 1.7
2017-Aug-10 07:00N 32°12' W 120°20'1 1.6
2017-Aug-10 06:30N 32°12' W 120°19'1 1.6
2017-Aug-10 06:00N 32°12' W 120°18'1 1.7
2017-Aug-10 05:27N 32°12' W 120°17'1 1.7
2017-Aug-10 05:01N 32°12' W 120°16'1 1.5
2017-Aug-10 04:29N 32°12' W 120°15'1 1.7
2017-Aug-10 03:59N 32°12' W 120°14'1 1.6
2017-Aug-10 03:31N 32°12' W 120°13'1 1.6
2017-Aug-10 02:59N 32°12' W 120°12'1 1.6
2017-Aug-10 02:31N 32°12' W 120°11'1 1.6
2017-Aug-10 02:01N 32°12' W 120°10'1 1.7
2017-Aug-10 01:30N 32°12' W 120°09'1 1.8
2017-Aug-10 01:00N 32°12' W 120°08'1 1.6
2017-Aug-10 00:23N 32°12' W 120°07'1 1.8
2017-Aug-09 23:59N 32°12' W 120°07'1 1.7
2017-Aug-09 23:31N 32°12' W 120°06'1 2.0
2017-Aug-09 22:59N 32°13' W 120°05'2 1.9
2017-Aug-09 22:05N 32°15' W 120°04'0 1.8
2017-Aug-09 22:01N 32°15' W 120°04'1 2.0
2017-Aug-09 21:30N 32°16' W 120°03'1 1.9
2017-Aug-09 21:00N 32°16' W 120°03'1 1.8
2017-Aug-09 20:30N 32°17' W 120°02'1 1.9
2017-Aug-09 20:00N 32°17' W 120°01'1 1.9
2017-Aug-09 19:30N 32°17' W 119°60'1 1.9
2017-Aug-09 19:00N 32°18' W 119°59'1 2.0
2017-Aug-09 18:31N 32°18' W 119°58'1 1.8
2017-Aug-09 18:01N 32°18' W 119°56'1 2.0
2017-Aug-09 17:31N 32°18' W 119°55'1 2.0
2017-Aug-09 17:00N 32°18' W 119°54'1 1.8
2017-Aug-09 16:31N 32°18' W 119°53'1 1.9
2017-Aug-09 15:59N 32°17' W 119°52'1 2.1
2017-Aug-09 15:25N 32°17' W 119°51'1 1.9
2017-Aug-09 15:01N 32°16' W 119°50'1 1.8
2017-Aug-09 14:27N 32°16' W 119°49'1 1.9
2017-Aug-09 14:00N 32°15' W 119°49'1 2.0
2017-Aug-09 13:30N 32°15' W 119°48'1 1.9
2017-Aug-09 13:01N 32°14' W 119°47'1 1.9
2017-Aug-09 12:30N 32°13' W 119°46'1 2.0
2017-Aug-09 12:00N 32°12' W 119°45'1 2.0
2017-Aug-09 11:31N 32°12' W 119°45'1 2.1
2017-Aug-09 11:01N 32°11' W 119°43'1 2.1
2017-Aug-09 10:31N 32°11' W 119°42'1 2.0
2017-Aug-09 10:01N 32°11' W 119°41'1 2.0
2017-Aug-09 09:30N 32°11' W 119°40'1 1.9
2017-Aug-09 09:01N 32°11' W 119°39'1 2.0
2017-Aug-09 08:31N 32°11' W 119°38'1 1.9
2017-Aug-09 08:01N 32°11' W 119°36'1 2.0
2017-Aug-09 07:31N 32°11' W 119°35'1 2.1
2017-Aug-09 07:01N 32°12' W 119°34'1 2.1
2017-Aug-09 06:30N 32°12' W 119°33'1 2.0
2017-Aug-09 06:00N 32°12' W 119°32'1 2.2
2017-Aug-09 05:30N 32°13' W 119°31'1 2.0
2017-Aug-09 05:01N 32°13' W 119°30'1 2.0
2017-Aug-09 04:30N 32°13' W 119°28'1 2.0
2017-Aug-09 04:00N 32°13' W 119°27'1 2.1
2017-Aug-09 03:30N 32°13' W 119°26'1 1.9
2017-Aug-09 03:00N 32°13' W 119°25'1 2.1
2017-Aug-09 02:31N 32°13' W 119°24'1 2.1
2017-Aug-09 02:00N 32°13' W 119°22'1 2.0
2017-Aug-09 01:30N 32°13' W 119°21'1 2.1
2017-Aug-09 01:01N 32°13' W 119°20'1 2.0
2017-Aug-09 00:30N 32°12' W 119°19'1 2.0
2017-Aug-09 00:00N 32°12' W 119°18'1 2.0
2017-Aug-08 23:31N 32°12' W 119°17'1 1.9
2017-Aug-08 23:00N 32°12' W 119°15'1 2.0
2017-Aug-08 22:30N 32°12' W 119°14'1 2.0
2017-Aug-08 22:00N 32°12' W 119°13'1 2.0
2017-Aug-08 21:30N 32°12' W 119°12'1 2.0
2017-Aug-08 21:01N 32°11' W 119°11'1 2.1
2017-Aug-08 20:31N 32°11' W 119°10'1 1.9
2017-Aug-08 20:01N 32°11' W 119°08'1 2.2
2017-Aug-08 19:30N 32°11' W 119°07'1 2.0
2017-Aug-08 18:58N 32°11' W 119°06'1 2.0
2017-Aug-08 18:31N 32°11' W 119°05'1 1.9
2017-Aug-08 18:00N 32°10' W 119°04'1 1.8
2017-Aug-08 17:31N 32°10' W 119°03'1 2.0
2017-Aug-08 17:01N 32°10' W 119°02'1 2.0
2017-Aug-08 16:30N 32°10' W 119°00'1 2.0
2017-Aug-08 16:01N 32°10' W 118°59'1 2.0
2017-Aug-08 15:31N 32°10' W 118°58'1 2.0
2017-Aug-08 15:00N 32°10' W 118°57'1 2.0
2017-Aug-08 14:31N 32°10' W 118°56'1 2.0
2017-Aug-08 14:01N 32°10' W 118°55'1 2.0
2017-Aug-08 13:30N 32°11' W 118°53'1 2.0
2017-Aug-08 13:00N 32°11' W 118°52'1 2.0
2017-Aug-08 12:30N 32°12' W 118°51'1 2.0
2017-Aug-08 12:00N 32°12' W 118°50'1 2.0
2017-Aug-08 11:30N 32°13' W 118°49'1 2.0
2017-Aug-08 11:00N 32°13' W 118°48'1 1.9
2017-Aug-08 10:30N 32°13' W 118°47'1 1.9
2017-Aug-08 10:00N 32°14' W 118°46'1 1.9
2017-Aug-08 09:31N 32°15' W 118°46'1 1.9
2017-Aug-08 09:00N 32°16' W 118°45'1 2.0
2017-Aug-08 08:30N 32°16' W 118°44'1 2.3
2017-Aug-08 08:00N 32°17' W 118°44'1 2.2
2017-Aug-08 07:27N 32°19' W 118°43'1 2.2
2017-Aug-08 07:01N 32°20' W 118°43'1 2.2
2017-Aug-08 06:30N 32°21' W 118°43'1 2.2
2017-Aug-08 06:00N 32°22' W 118°43'1 2.2
2017-Aug-08 05:31N 32°23' W 118°42'1 2.2
2017-Aug-08 05:00N 32°24' W 118°42'1 2.2
2017-Aug-08 04:30N 32°25' W 118°41'1 2.2
2017-Aug-08 04:00N 32°25' W 118°40'1 2.1
2017-Aug-08 03:30N 32°26' W 118°39'1 2.0
2017-Aug-08 03:01N 32°26' W 118°38'1 2.1
2017-Aug-08 02:30N 32°27' W 118°36'1 2.0
2017-Aug-08 02:01N 32°27' W 118°36'1 2.1
2017-Aug-08 01:30N 32°28' W 118°35'1 2.1
2017-Aug-08 01:00N 32°29' W 118°34'1 2.3
2017-Aug-08 00:31N 32°29' W 118°32'1 2.2
2017-Aug-08 00:00N 32°29' W 118°31'1 2.1
2017-Aug-07 23:30N 32°29' W 118°30'1 2.2
2017-Aug-07 23:00N 32°29' W 118°28'1 2.2
2017-Aug-07 22:30N 32°30' W 118°27'1 2.3
2017-Aug-07 22:00N 32°30' W 118°26'1 2.2
2017-Aug-07 21:30N 32°31' W 118°25'1 2.1
2017-Aug-07 21:00N 32°31' W 118°24'1 1.9
2017-Aug-07 20:30N 32°32' W 118°23'1 2.1
2017-Aug-07 20:00N 32°32' W 118°22'1 2.0
2017-Aug-07 19:30N 32°32' W 118°20'1 2.1
2017-Aug-07 19:01N 32°33' W 118°19'1 2.2
2017-Aug-07 18:30N 32°33' W 118°18'1 2.3
2017-Aug-07 18:01N 32°35' W 118°18'1 2.1
2017-Aug-07 17:30N 32°36' W 118°18'1 2.2
2017-Aug-07 17:01N 32°37' W 118°18'1 2.1
2017-Aug-07 16:31N 32°38' W 118°18'1 2.1
2017-Aug-07 16:01N 32°39' W 118°17'1 1.9
2017-Aug-07 15:31N 32°40' W 118°17'1 2.0
2017-Aug-07 15:01N 32°40' W 118°16'1 2.1
2017-Aug-07 14:31N 32°41' W 118°16'1 2.0
2017-Aug-07 14:01N 32°42' W 118°16'1 2.1
2017-Aug-07 13:30N 32°44' W 118°16'1 2.3
2017-Aug-07 13:00N 32°45' W 118°15'1 2.2
2017-Aug-07 12:30N 32°46' W 118°15'1 2.1
2017-Aug-07 12:00N 32°47' W 118°16'1 2.2
2017-Aug-07 11:30N 32°48' W 118°16'1 2.1
2017-Aug-07 11:00N 32°49' W 118°16'1 2.2
2017-Aug-07 10:30N 32°50' W 118°16'  
Track history (hours):
 
Tides and Currents Weather Stations Pressure Air Temp Water Temp Dewpoint Dewpoint Depression Visibility Wind Speed Wind Dir Waves Ship Positions

Oceanographic research ship New Horizon (USA)

Detailed information on ship capabilities available from University of Delaware's Ocean Information Center.

Owner: Bold Horizon, LLC., Annapolis, MD. More information available from US FCC via Universal Licensing System and Coast Guard Vessel Documentation Center.

Last reported at 2017-Aug-17 10:10 UTC. Time now 2017-Aug-20 09:50 UTC.
Position N 32°42' W 117°09'.

Type: Other ship. MMSI: 303273000.

Date/timePositionNaut miles runAvg speedWind from/ knotsBaromVisibWave heightAir tempDewpointWater temp
2017-Aug-17 10:10N 32°42' W 117°09'0 0.0
2017-Aug-17 09:43N 32°42' W 117°09'0 0.0
2017-Aug-17 09:07N 32°42' W 117°09'0 0.0
2017-Aug-17 07:55N 32°42' W 117°09'0 0.0
2017-Aug-16 22:57N 32°42' W 117°09'1 2.9
2017-Aug-16 22:26N 32°43' W 117°11'3 6.4
2017-Aug-16 22:01N 32°42' W 117°14'4 7.2
2017-Aug-16 21:31N 32°38' W 117°14'4 7.2
2017-Aug-16 21:01N 32°37' W 117°17'4 7.4
2017-Aug-16 20:31N 32°36' W 117°22'4 7.5
2017-Aug-16 20:00N 32°35' W 117°26'3 7.0
2017-Aug-16 19:31N 32°34' W 117°30'4 7.0
2017-Aug-16 19:01N 32°33' W 117°34'4 7.0
2017-Aug-16 18:31N 32°32' W 117°38'3 6.2
2017-Aug-16 18:00N 32°31' W 117°41'4 7.5
2017-Aug-16 17:31N 32°30' W 117°46'3 6.5
2017-Aug-16 17:00N 32°29' W 117°49'3 6.8
2017-Aug-16 16:31N 32°27' W 117°52'3 5.6
2017-Aug-16 16:00N 32°29' W 117°55'4 7.6
2017-Aug-16 15:30N 32°28' W 117°60'4 7.9
2017-Aug-16 15:01N 32°27' W 118°04'4 8.0
2017-Aug-16 14:30N 32°26' W 118°08'4 7.7
2017-Aug-16 14:01N 32°24' W 118°13'4 7.2
2017-Aug-16 13:31N 32°24' W 118°17'4 7.2
2017-Aug-16 12:53N 32°23' W 118°22'3 7.1
2017-Aug-16 12:30N 32°22' W 118°25'3 7.0
2017-Aug-16 12:01N 32°21' W 118°29'4 7.1
2017-Aug-16 11:29N 32°20' W 118°33'3 7.0
2017-Aug-16 11:00N 32°19' W 118°37'3 6.9
2017-Aug-16 10:30N 32°18' W 118°41'2 3.2
2017-Aug-16 10:01N 32°18' W 118°43'1 2.1
2017-Aug-16 09:30N 32°19' W 118°42'1 1.0
2017-Aug-16 09:00N 32°18' W 118°42'2 3.7
2017-Aug-16 08:31N 32°17' W 118°43'1 2.6
2017-Aug-16 08:00N 32°18' W 118°43'0 0.3
2017-Aug-16 07:29N 32°18' W 118°43'0 0.1
2017-Aug-16 07:00N 32°18' W 118°43'0 0.0
2017-Aug-16 06:30N 32°18' W 118°43'0 0.3
2017-Aug-16 06:00N 32°18' W 118°43'3 6.7
2017-Aug-16 05:30N 32°16' W 118°46'3 6.6
2017-Aug-16 05:01N 32°15' W 118°50'3 6.6
2017-Aug-16 04:30N 32°13' W 118°53'3 6.8
2017-Aug-16 04:00N 32°11' W 118°56'3 6.2
2017-Aug-16 03:31N 32°09' W 118°59'0 0.8
2017-Aug-16 03:01N 32°09' W 118°60'2 3.7
2017-Aug-16 02:31N 32°09' W 119°02'1 2.8
2017-Aug-16 02:01N 32°10' W 119°03'2 3.4
2017-Aug-16 01:30N 32°10' W 119°01'0 0.4
2017-Aug-16 01:00N 32°09' W 119°01'0 0.3
2017-Aug-16 00:30N 32°09' W 119°02'0 0.8
2017-Aug-16 00:00N 32°09' W 119°01'0 0.8
2017-Aug-15 23:30N 32°09' W 119°01'2 4.9
2017-Aug-15 23:01N 32°09' W 119°04'4 7.1
2017-Aug-15 22:31N 32°09' W 119°09'4 7.1
2017-Aug-15 22:01N 32°09' W 119°13'4 7.2
2017-Aug-15 21:30N 32°09' W 119°17'4 6.8
2017-Aug-15 21:00N 32°09' W 119°21'3 6.8
2017-Aug-15 20:31N 32°09' W 119°25'4 6.9
2017-Aug-15 20:00N 32°09' W 119°29'3 6.9
2017-Aug-15 19:30N 32°09' W 119°33'4 6.9
2017-Aug-15 18:52N 32°09' W 119°38'2 3.8
2017-Aug-15 18:28N 32°09' W 119°40'2 3.4
2017-Aug-15 18:01N 32°09' W 119°42'2 3.7
2017-Aug-15 17:30N 32°10' W 119°44'2 3.4
2017-Aug-15 17:01N 32°11' W 119°42'1 0.5
2017-Aug-15 15:53N 32°10' W 119°42'0 0.0
2017-Aug-15 15:08N 32°10' W 119°42'0 0.6
2017-Aug-15 15:00N 32°10' W 119°42'1 1.4
2017-Aug-15 14:08N 32°10' W 119°44'0 2.9
2017-Aug-15 14:00N 32°10' W 119°43'2 3.6
2017-Aug-15 13:22N 32°09' W 119°41'20 2.8
2017-Aug-15 06:16N 32°16' W 120°03'1 3.9
2017-Aug-15 05:59N 32°15' W 120°03'3 0.5
2017-Aug-14 22:53N 32°12' W 120°05'2 6.6
2017-Aug-14 22:30N 32°13' W 120°02'4 6.7
2017-Aug-14 21:59N 32°14' W 119°58'3 6.6
2017-Aug-14 21:30N 32°15' W 119°55'3 6.6
2017-Aug-14 21:00N 32°15' W 119°51'4 6.8
2017-Aug-14 20:28N 32°16' W 119°47'3 6.7
2017-Aug-14 20:00N 32°17' W 119°43'3 6.9
2017-Aug-14 19:30N 32°18' W 119°39'3 6.9
2017-Aug-14 19:01N 32°18' W 119°35'3 6.6
2017-Aug-14 18:31N 32°19' W 119°31'3 6.8
2017-Aug-14 18:01N 32°20' W 119°27'3 6.7
2017-Aug-14 17:30N 32°21' W 119°24'4 7.1
2017-Aug-14 17:00N 32°22' W 119°20'4 7.0
2017-Aug-14 16:31N 32°23' W 119°16'4 7.3
2017-Aug-14 16:00N 32°23' W 119°11'4 7.0
2017-Aug-14 15:27N 32°24' W 119°07'3 7.0
2017-Aug-14 15:01N 32°25' W 119°03'3 6.8
2017-Aug-14 14:30N 32°25' W 118°59'3 6.8
2017-Aug-14 14:00N 32°26' W 118°55'3 6.9
2017-Aug-14 13:31N 32°28' W 118°52'3 6.8
2017-Aug-14 13:00N 32°30' W 118°49'3 7.0
2017-Aug-14 12:30N 32°32' W 118°45'4 7.2
2017-Aug-14 12:00N 32°34' W 118°42'3 7.0
2017-Aug-14 11:31N 32°36' W 118°39'3 6.9
2017-Aug-14 11:01N 32°38' W 118°35'4 7.1
2017-Aug-14 10:30N 32°40' W 118°32'4 7.1
2017-Aug-14 10:01N 32°42' W 118°28'4 7.1
2017-Aug-14 09:30N 32°44' W 118°25'3 6.9
2017-Aug-14 09:00N 32°47' W 118°22'3 6.5
2017-Aug-14 08:30N 32°49' W 118°20'3 7.0
2017-Aug-14 08:01N 32°53' W 118°21'4 7.0
2017-Aug-14 07:30N 32°56' W 118°22'3 5.8
2017-Aug-14 06:59N 32°59' W 118°23'1 1.5
2017-Aug-14 06:30N 32°60' W 118°23'2 3.2
2017-Aug-14 06:00N 33°01' W 118°23'1 2.9
2017-Aug-14 05:31N 33°01' W 118°24'1 1.5
2017-Aug-14 04:52N 33°01' W 118°25'0 1.3
2017-Aug-14 04:30N 33°00' W 118°25'1 2.6
2017-Aug-14 04:01N 33°01' W 118°23'0 0.5
2017-Aug-14 03:30N 33°00' W 118°23'0 0.5
2017-Aug-14 03:00N 33°01' W 118°23'0 0.0
2017-Aug-14 02:26N 33°01' W 118°23'1 2.4
2017-Aug-14 02:00N 33°00' W 118°25'4 7.3
2017-Aug-14 01:30N 32°60' W 118°29'3 5.5
2017-Aug-14 01:01N 32°59' W 118°32'0 0.3
2017-Aug-14 00:31N 32°59' W 118°32'0 0.2
2017-Aug-14 00:01N 32°59' W 118°32'0 0.0
2017-Aug-13 23:30N 32°59' W 118°32'0 0.1
2017-Aug-13 23:00N 32°59' W 118°32'1 2.6
2017-Aug-13 22:30N 32°58' W 118°31'4 7.5
2017-Aug-13 22:00N 32°56' W 118°27'3 6.8
2017-Aug-13 21:30N 32°54' W 118°24'1 2.6
2017-Aug-13 21:01N 32°54' W 118°23'1 1.4
2017-Aug-13 20:31N 32°53' W 118°22'1 1.8
2017-Aug-13 20:00N 32°52' W 118°21'0 0.7
2017-Aug-13 19:30N 32°52' W 118°21'1 2.1
2017-Aug-13 19:01N 32°51' W 118°20'1 2.2
2017-Aug-13 18:30N 32°50' W 118°20'1 2.0
2017-Aug-13 18:00N 32°49' W 118°19'1 2.1
2017-Aug-13 17:30N 32°49' W 118°18'1 2.1
2017-Aug-13 17:00N 32°48' W 118°18'1 2.0
2017-Aug-13 16:31N 32°47' W 118°17'1 2.1
2017-Aug-13 16:00N 32°46' W 118°16'1 2.1
2017-Aug-13 15:30N 32°46' W 118°15'1 2.0
2017-Aug-13 15:01N 32°45' W 118°14'1 2.0
2017-Aug-13 14:30N 32°44' W 118°13'1 2.0
2017-Aug-13 14:00N 32°44' W 118°12'1 2.2
2017-Aug-13 13:30N 32°42' W 118°12'1 2.1
2017-Aug-13 13:00N 32°41' W 118°12'1 2.0
2017-Aug-13 12:30N 32°40' W 118°12'1 2.2
2017-Aug-13 12:00N 32°39' W 118°13'1 2.4
2017-Aug-13 11:31N 32°39' W 118°14'1 2.4
2017-Aug-13 11:00N 32°38' W 118°15'1 2.3
2017-Aug-13 10:30N 32°37' W 118°16'1 2.4
2017-Aug-13 09:59N 32°36' W 118°17'1 2.4
2017-Aug-13 09:30N 32°35' W 118°18'1 2.5
2017-Aug-13 09:00N 32°34' W 118°18'1 2.4
2017-Aug-13 08:30N 32°33' W 118°19'1 2.4
2017-Aug-13 08:00N 32°32' W 118°20'1 2.5
2017-Aug-13 07:30N 32°32' W 118°21'1 2.5
2017-Aug-13 07:00N 32°31' W 118°22'1 2.5
2017-Aug-13 06:30N 32°31' W 118°24'1 2.5
2017-Aug-13 06:01N 32°31' W 118°25'1 2.5
2017-Aug-13 05:30N 32°30' W 118°26'1 2.5
2017-Aug-13 04:59N 32°29' W 118°28'1 2.3
2017-Aug-13 04:30N 32°29' W 118°29'1 2.3
2017-Aug-13 04:01N 32°29' W 118°30'1 2.4
2017-Aug-13 03:30N 32°29' W 118°32'1 2.6
2017-Aug-13 03:00N 32°28' W 118°33'1 2.5
2017-Aug-13 02:30N 32°28' W 118°35'1 2.6
2017-Aug-13 02:00N 32°27' W 118°36'1 2.3
2017-Aug-13 01:31N 32°26' W 118°37'1 2.5
2017-Aug-13 01:00N 32°26' W 118°38'1 2.4
2017-Aug-13 00:30N 32°25' W 118°39'1 2.5
2017-Aug-13 00:00N 32°25' W 118°41'1 2.4
2017-Aug-12 23:31N 32°24' W 118°41'1 2.3
2017-Aug-12 22:59N 32°23' W 118°42'1 2.4
2017-Aug-12 22:30N 32°21' W 118°42'1 2.4
2017-Aug-12 22:00N 32°20' W 118°43'1 1.8
2017-Aug-12 21:30N 32°19' W 118°43'1 1.9
2017-Aug-12 21:00N 32°19' W 118°43'1 1.8
2017-Aug-12 20:30N 32°18' W 118°43'1 1.8
2017-Aug-12 20:00N 32°17' W 118°44'1 2.2
2017-Aug-12 19:30N 32°16' W 118°44'1 2.3
2017-Aug-12 19:00N 32°15' W 118°45'1 2.2
2017-Aug-12 18:30N 32°14' W 118°46'1 2.2
2017-Aug-12 18:00N 32°13' W 118°47'1 2.1
2017-Aug-12 17:30N 32°13' W 118°48'1 2.2
2017-Aug-12 17:00N 32°12' W 118°49'1 2.5
2017-Aug-12 16:31N 32°12' W 118°50'1 2.4
2017-Aug-12 15:59N 32°11' W 118°52'1 2.1
2017-Aug-12 15:30N 32°11' W 118°53'1 2.3
2017-Aug-12 15:01N 32°10' W 118°54'1 2.2
2017-Aug-12 14:30N 32°10' W 118°55'1 2.1
2017-Aug-12 13:58N 32°10' W 118°57'1 2.1
2017-Aug-12 13:28N 32°10' W 118°58'1 2.0
2017-Aug-12 13:00N 32°10' W 118°59'1 1.5
2017-Aug-12 12:30N 32°10' W 118°60'1 1.5
2017-Aug-12 12:00N 32°10' W 119°01'1 1.6
2017-Aug-12 11:31N 32°10' W 119°02'1 1.6
2017-Aug-12 11:01N 32°10' W 119°03'1 1.6
2017-Aug-12 10:30N 32°10' W 119°04'1 2.3
2017-Aug-12 10:01N 32°10' W 119°05'1 2.4
2017-Aug-12 09:31N 32°11' W 119°06'1 2.5
2017-Aug-12 09:00N 32°11' W 119°08'1 2.5
2017-Aug-12 08:31N 32°11' W 119°09'1 2.4
2017-Aug-12 08:00N 32°11' W 119°11'1 2.6
2017-Aug-12 07:31N 32°12' W 119°12'1 2.5
2017-Aug-12 07:00N 32°12' W 119°14'1 2.4
2017-Aug-12 06:31N 32°11' W 119°15'1 2.4
2017-Aug-12 06:01N 32°12' W 119°16'1 2.5
2017-Aug-12 05:31N 32°12' W 119°18'1 2.5
2017-Aug-12 04:57N 32°12' W 119°19'1 2.5
2017-Aug-12 04:23N 32°13' W 119°21'1 2.6
2017-Aug-12 04:01N 32°13' W 119°22'1 2.3
2017-Aug-12 03:31N 32°13' W 119°23'1 2.6
2017-Aug-12 02:58N 32°13' W 119°25'1 2.5
2017-Aug-12 02:30N 32°13' W 119°26'1 2.4
2017-Aug-12 02:00N 32°13' W 119°28'1 2.3
2017-Aug-12 01:30N 32°13' W 119°29'1 2.1
2017-Aug-12 01:00N 32°13' W 119°30'1 2.0
2017-Aug-12 00:30N 32°12' W 119°31'1 2.1
2017-Aug-12 00:01N 32°12' W 119°33'1 2.1
2017-Aug-11 23:31N 32°12' W 119°34'1 2.1
2017-Aug-11 23:00N 32°11' W 119°35'1 2.2
2017-Aug-11 22:30N 32°11' W 119°36'1 2.0
2017-Aug-11 22:01N 32°11' W 119°37'1 2.1
2017-Aug-11 21:30N 32°10' W 119°38'1 1.9
2017-Aug-11 21:00N 32°10' W 119°39'1 2.1
2017-Aug-11 20:30N 32°10' W 119°41'1 2.0
2017-Aug-11 20:01N 32°11' W 119°42'1 2.0
2017-Aug-11 19:30N 32°11' W 119°43'1 2.1
2017-Aug-11 19:01N 32°11' W 119°44'1 2.1
2017-Aug-11 18:30N 32°12' W 119°45'1 2.1
2017-Aug-11 18:01N 32°13' W 119°46'1 2.1
2017-Aug-11 17:31N 32°13' W 119°47'1 2.1
2017-Aug-11 17:00N 32°14' W 119°48'1 2.1
2017-Aug-11 16:30N 32°15' W 119°49'1 2.0
2017-Aug-11 16:00N 32°16' W 119°49'1 2.0
2017-Aug-11 15:29N 32°16' W 119°50'1 2.0
2017-Aug-11 15:00N 32°16' W 119°52'2 1.8
2017-Aug-11 13:58N 32°18' W 119°53'1 2.0
2017-Aug-11 13:30N 32°18' W 119°54'1 2.2
2017-Aug-11 13:00N 32°18' W 119°55'1 2.2
2017-Aug-11 12:30N 32°18' W 119°57'1 2.0
2017-Aug-11 12:01N 32°18' W 119°58'1 2.1
2017-Aug-11 11:31N 32°18' W 119°59'1 2.0
2017-Aug-11 11:01N 32°17' W 120°00'1 1.7
2017-Aug-11 10:31N 32°17' W 120°01'1 1.8
2017-Aug-11 10:00N 32°17' W 120°02'1 1.8
2017-Aug-11 09:31N 32°16' W 120°03'1 1.7
2017-Aug-11 09:00N 32°16' W 120°03'1 1.8
2017-Aug-11 08:30N 32°15' W 120°04'1 1.8
2017-Aug-11 08:00N 32°14' W 120°04'1 1.8
2017-Aug-11 07:31N 32°13' W 120°04'1 1.7
2017-Aug-11 07:00N 32°12' W 120°05'1 1.8
2017-Aug-11 06:31N 32°12' W 120°06'1 1.8
2017-Aug-11 06:00N 32°12' W 120°07'1 1.8
2017-Aug-11 05:31N 32°11' W 120°08'1 2.0
2017-Aug-11 05:00N 32°11' W 120°09'1 2.0
2017-Aug-11 04:31N 32°12' W 120°10'1 1.7
2017-Aug-11 04:00N 32°11' W 120°11'1 1.7
2017-Aug-11 03:31N 32°11' W 120°12'1 1.8
2017-Aug-11 03:01N 32°11' W 120°13'1 1.9
2017-Aug-11 02:31N 32°11' W 120°15'1 2.3
2017-Aug-11 02:01N 32°10' W 120°16'1 2.2
2017-Aug-11 01:31N 32°10' W 120°17'1 2.0
2017-Aug-11 01:00N 32°10' W 120°18'1 1.6
2017-Aug-11 00:31N 32°11' W 120°19'1 1.7
2017-Aug-11 00:00N 32°11' W 120°20'1 1.6
2017-Aug-10 23:30N 32°11' W 120°21'1 1.6
2017-Aug-10 23:01N 32°11' W 120°22'1 1.5
2017-Aug-10 22:30N 32°11' W 120°23'1 1.5
2017-Aug-10 22:00N 32°11' W 120°24'1 1.5
2017-Aug-10 21:30N 32°11' W 120°25'1 1.6
2017-Aug-10 21:00N 32°11' W 120°26'1 1.8
2017-Aug-10 20:30N 32°11' W 120°27'1 1.6
2017-Aug-10 20:00N 32°11' W 120°28'1 1.6
2017-Aug-10 19:24N 32°11' W 120°29'1 1.7
2017-Aug-10 19:00N 32°11' W 120°30'1 1.6
2017-Aug-10 18:30N 32°11' W 120°31'1 1.8
2017-Aug-10 17:59N 32°10' W 120°32'2 2.0
2017-Aug-10 17:09N 32°10' W 120°34'0 2.1
2017-Aug-10 17:01N 32°10' W 120°34'2 1.3
2017-Aug-10 15:25N 32°11' W 120°36'2 1.5
2017-Aug-10 13:46N 32°12' W 120°33'1 1.9
2017-Aug-10 13:25N 32°12' W 120°33'1 1.7
2017-Aug-10 12:39N 32°12' W 120°31'0 2.0
2017-Aug-10 12:30N 32°12' W 120°31'1 2.0
2017-Aug-10 12:00N 32°12' W 120°30'1 1.9
2017-Aug-10 11:31N 32°12' W 120°29'1 1.7
2017-Aug-10 11:01N 32°12' W 120°28'1 1.6
2017-Aug-10 10:31N 32°12' W 120°27'1 1.5
2017-Aug-10 10:01N 32°12' W 120°26'1 1.6
2017-Aug-10 09:30N 32°12' W 120°25'1 1.6
2017-Aug-10 09:00N 32°12' W 120°24'1 1.5
2017-Aug-10 08:31N 32°12' W 120°23'1 1.6
2017-Aug-10 08:00N 32°12' W 120°22'1 1.5
2017-Aug-10 07:30N 32°12' W 120°21'1 1.7
2017-Aug-10 07:00N 32°12' W 120°20'1 1.6
2017-Aug-10 06:30N 32°12' W 120°19'1 1.6
2017-Aug-10 06:00N 32°12' W 120°18'1 1.7
2017-Aug-10 05:27N 32°12' W 120°17'1 1.7
2017-Aug-10 05:01N 32°12' W 120°16'1 1.5
2017-Aug-10 04:29N 32°12' W 120°15'1 1.7
2017-Aug-10 03:59N 32°12' W 120°14'1 1.6
2017-Aug-10 03:31N 32°12' W 120°13'1 1.6
2017-Aug-10 02:59N 32°12' W 120°12'1 1.6
2017-Aug-10 02:31N 32°12' W 120°11'1 1.6
2017-Aug-10 02:01N 32°12' W 120°10'1 1.7
2017-Aug-10 01:30N 32°12' W 120°09'1 1.8
2017-Aug-10 01:00N 32°12' W 120°08'1 1.6
2017-Aug-10 00:23N 32°12' W 120°07'1 1.8
2017-Aug-09 23:59N 32°12' W 120°07'1 1.7
2017-Aug-09 23:31N 32°12' W 120°06'1 2.0
2017-Aug-09 22:59N 32°13' W 120°05'2 1.9
2017-Aug-09 22:05N 32°15' W 120°04'0 1.8
2017-Aug-09 22:01N 32°15' W 120°04'1 2.0
2017-Aug-09 21:30N 32°16' W 120°03'1 1.9
2017-Aug-09 21:00N 32°16' W 120°03'1 1.8
2017-Aug-09 20:30N 32°17' W 120°02'1 1.9
2017-Aug-09 20:00N 32°17' W 120°01'1 1.9
2017-Aug-09 19:30N 32°17' W 119°60'1 1.9
2017-Aug-09 19:00N 32°18' W 119°59'1 2.0
2017-Aug-09 18:31N 32°18' W 119°58'1 1.8
2017-Aug-09 18:01N 32°18' W 119°56'1 2.0
2017-Aug-09 17:31N 32°18' W 119°55'1 2.0
2017-Aug-09 17:00N 32°18' W 119°54'1 1.8
2017-Aug-09 16:31N 32°18' W 119°53'1 1.9
2017-Aug-09 15:59N 32°17' W 119°52'1 2.1
2017-Aug-09 15:25N 32°17' W 119°51'1 1.9
2017-Aug-09 15:01N 32°16' W 119°50'1 1.8
2017-Aug-09 14:27N 32°16' W 119°49'1 1.9
2017-Aug-09 14:00N 32°15' W 119°49'1 2.0
2017-Aug-09 13:30N 32°15' W 119°48'1 1.9
2017-Aug-09 13:01N 32°14' W 119°47'1 1.9
2017-Aug-09 12:30N 32°13' W 119°46'1 2.0
2017-Aug-09 12:00N 32°12' W 119°45'1 2.0
2017-Aug-09 11:31N 32°12' W 119°45'1 2.1
2017-Aug-09 11:01N 32°11' W 119°43'1 2.1
2017-Aug-09 10:31N 32°11' W 119°42'1 2.0
2017-Aug-09 10:01N 32°11' W 119°41'1 2.0
2017-Aug-09 09:30N 32°11' W 119°40'1 1.9
2017-Aug-09 09:01N 32°11' W 119°39'1 2.0
2017-Aug-09 08:31N 32°11' W 119°38'1 1.9
2017-Aug-09 08:01N 32°11' W 119°36'1 2.0
2017-Aug-09 07:31N 32°11' W 119°35'1 2.1
2017-Aug-09 07:01N 32°12' W 119°34'1 2.1
2017-Aug-09 06:30N 32°12' W 119°33'1 2.0
2017-Aug-09 06:00N 32°12' W 119°32'1 2.2
2017-Aug-09 05:30N 32°13' W 119°31'1 2.0
2017-Aug-09 05:01N 32°13' W 119°30'1 2.0
2017-Aug-09 04:30N 32°13' W 119°28'1 2.0
2017-Aug-09 04:00N 32°13' W 119°27'1 2.1
2017-Aug-09 03:30N 32°13' W 119°26'1 1.9
2017-Aug-09 03:00N 32°13' W 119°25'1 2.1
2017-Aug-09 02:31N 32°13' W 119°24'1 2.1
2017-Aug-09 02:00N 32°13' W 119°22'1 2.0
2017-Aug-09 01:30N 32°13' W 119°21'1 2.1
2017-Aug-09 01:01N 32°13' W 119°20'1 2.0
2017-Aug-09 00:30N 32°12' W 119°19'1 2.0
2017-Aug-09 00:00N 32°12' W 119°18'1 2.0
2017-Aug-08 23:31N 32°12' W 119°17'1 1.9
2017-Aug-08 23:00N 32°12' W 119°15'1 2.0
2017-Aug-08 22:30N 32°12' W 119°14'1 2.0
2017-Aug-08 22:00N 32°12' W 119°13'1 2.0
2017-Aug-08 21:30N 32°12' W 119°12'1 2.0
2017-Aug-08 21:01N 32°11' W 119°11'1 2.1
2017-Aug-08 20:31N 32°11' W 119°10'1 1.9
2017-Aug-08 20:01N 32°11' W 119°08'1 2.2
2017-Aug-08 19:30N 32°11' W 119°07'1 2.0
2017-Aug-08 18:58N 32°11' W 119°06'1 2.0
2017-Aug-08 18:31N 32°11' W 119°05'1 1.9
2017-Aug-08 18:00N 32°10' W 119°04'1 1.8
2017-Aug-08 17:31N 32°10' W 119°03'1 2.0
2017-Aug-08 17:01N 32°10' W 119°02'1 2.0
2017-Aug-08 16:30N 32°10' W 119°00'1 2.0
2017-Aug-08 16:01N 32°10' W 118°59'1 2.0
2017-Aug-08 15:31N 32°10' W 118°58'1 2.0
2017-Aug-08 15:00N 32°10' W 118°57'1 2.0
2017-Aug-08 14:31N 32°10' W 118°56'1 2.0
2017-Aug-08 14:01N 32°10' W 118°55'1 2.0
2017-Aug-08 13:30N 32°11' W 118°53'1 2.0
2017-Aug-08 13:00N 32°11' W 118°52'1 2.0
2017-Aug-08 12:30N 32°12' W 118°51'1 2.0
2017-Aug-08 12:00N 32°12' W 118°50'1 2.0
2017-Aug-08 11:30N 32°13' W 118°49'1 2.0
2017-Aug-08 11:00N 32°13' W 118°48'1 1.9
2017-Aug-08 10:30N 32°13' W 118°47'1 1.9
2017-Aug-08 10:00N 32°14' W 118°46'1 1.9
2017-Aug-08 09:31N 32°15' W 118°46'1 1.9
2017-Aug-08 09:00N 32°16' W 118°45'1 2.0
2017-Aug-08 08:30N 32°16' W 118°44'1 2.3
2017-Aug-08 08:00N 32°17' W 118°44'1 2.2
2017-Aug-08 07:27N 32°19' W 118°43'1 2.2
2017-Aug-08 07:01N 32°20' W 118°43'1 2.2
2017-Aug-08 06:30N 32°21' W 118°43'1 2.2
2017-Aug-08 06:00N 32°22' W 118°43'1 2.2
2017-Aug-08 05:31N 32°23' W 118°42'1 2.2
2017-Aug-08 05:00N 32°24' W 118°42'1 2.2
2017-Aug-08 04:30N 32°25' W 118°41'1 2.2
2017-Aug-08 04:00N 32°25' W 118°40'1 2.1
2017-Aug-08 03:30N 32°26' W 118°39'1 2.0
2017-Aug-08 03:01N 32°26' W 118°38'1 2.1
2017-Aug-08 02:30N 32°27' W 118°36'1 2.0
2017-Aug-08 02:01N 32°27' W 118°36'1 2.1
2017-Aug-08 01:30N 32°28' W 118°35'1 2.1
2017-Aug-08 01:00N 32°29' W 118°34'1 2.3
2017-Aug-08 00:31N 32°29' W 118°32'1 2.2
2017-Aug-08 00:00N 32°29' W 118°31'1 2.1
2017-Aug-07 23:30N 32°29' W 118°30'1 2.2
2017-Aug-07 23:00N 32°29' W 118°28'1 2.2
2017-Aug-07 22:30N 32°30' W 118°27'1 2.3
2017-Aug-07 22:00N 32°30' W 118°26'1 2.2
2017-Aug-07 21:30N 32°31' W 118°25'1 2.1
2017-Aug-07 21:00N 32°31' W 118°24'1 1.9
2017-Aug-07 20:30N 32°32' W 118°23'1 2.1
2017-Aug-07 20:00N 32°32' W 118°22'1 2.0
2017-Aug-07 19:30N 32°32' W 118°20'1 2.1
2017-Aug-07 19:01N 32°33' W 118°19'1 2.2
2017-Aug-07 18:30N 32°33' W 118°18'1 2.3
2017-Aug-07 18:01N 32°35' W 118°18'1 2.1
2017-Aug-07 17:30N 32°36' W 118°18'1 2.2
2017-Aug-07 17:01N 32°37' W 118°18'1 2.1
2017-Aug-07 16:31N 32°38' W 118°18'1 2.1
2017-Aug-07 16:01N 32°39' W 118°17'1 1.9
2017-Aug-07 15:31N 32°40' W 118°17'1 2.0
2017-Aug-07 15:01N 32°40' W 118°16'1 2.1
2017-Aug-07 14:31N 32°41' W 118°16'1 2.0
2017-Aug-07 14:01N 32°42' W 118°16'1 2.1
2017-Aug-07 13:30N 32°44' W 118°16'1 2.3
2017-Aug-07 13:00N 32°45' W 118°15'1 2.2
2017-Aug-07 12:30N 32°46' W 118°15'1 2.1
2017-Aug-07 12:00N 32°47' W 118°16'1 2.2
2017-Aug-07 11:30N 32°48' W 118°16'1 2.1
2017-Aug-07 11:00N 32°49' W 118°16'1 2.2
2017-Aug-07 10:30N 32°50' W 118°16'  

Dump ship's entire track history